Time;durP1;ratioP1;P1;durP2;ratioP2;P2;SDS_P1;SDS_P2;PMS_P1;PMS_P2;Temp;Humidity;BMP_temperature;BMP_pressure;BME280_temperature;BME280_humidity;BME280_pressure;Samples;Min_cycle;Max_cycle;Signal;HPM_P1;HPM_P2
2022/06/27 00:00:10;;;;;;;7.32;6.70;;;;;;;20.90;79.39;95283.84;4995610;28;20220;-67
2022/06/27 00:02:37;;;;;;;15.80;11.75;;;;;;;20.84;80.09;95286.00;4996615;28;20216;-67
2022/06/27 00:05:05;;;;;;;7.00;6.50;;;;;;;20.79;80.04;95277.78;4996463;28;20664;-67
2022/06/27 00:07:32;;;;;;;10.32;9.10;;;;;;;20.96;79.62;95283.41;4996428;28;20344;-67
2022/06/27 00:09:59;;;;;;;8.65;7.88;;;;;;;21.16;78.50;95278.56;4995060;28;20234;-66
2022/06/27 00:12:27;;;;;;;8.60;5.82;;;;;;;21.16;78.17;95278.56;4991839;28;20207;-67
2022/06/27 00:14:54;;;;;;;6.57;5.93;;;;;;;20.85;78.36;95283.31;4994706;28;20279;-67
2022/06/27 00:17:21;;;;;;;9.18;5.82;;;;;;;20.76;79.32;95281.41;4995768;28;20294;-66
2022/06/27 00:19:47;;;;;;;5.97;5.15;;;;;;;20.75;79.39;95274.59;4994767;28;20566;-65
2022/06/27 00:22:14;;;;;;;7.60;5.63;;;;;;;20.64;79.60;95283.06;4991553;28;20211;-65
2022/06/27 00:24:41;;;;;;;8.75;5.93;;;;;;;20.81;79.13;95284.47;4996357;28;20681;-66
2022/06/27 00:27:08;;;;;;;7.70;6.65;;;;;;;20.85;78.46;95283.31;4995115;28;20250;-64
2022/06/27 00:29:36;;;;;;;8.50;5.43;;;;;;;20.68;79.16;95291.44;4994921;28;20747;-66
2022/06/27 00:32:03;;;;;;;6.15;5.15;;;;;;;20.50;79.73;95290.13;4995724;28;20357;-67
2022/06/27 00:34:30;;;;;;;7.90;5.28;;;;;;;20.28;80.40;95285.59;4996125;28;22379;-68
2022/06/27 00:36:57;;;;;;;8.10;4.65;;;;;;;19.72;82.47;95292.78;4995709;28;20199;-67
2022/06/27 00:39:23;;;;;;;4.85;4.47;;;;;;;19.56;83.58;95286.97;4994990;28;20397;-67
2022/06/27 00:41:50;;;;;;;5.10;4.68;;;;;;;19.71;83.88;95280.81;4993416;28;20211;-68
2022/06/27 00:44:31;;;;;;;6.25;4.22;;;;;;;19.74;83.61;95279.78;4991164;28;20212;-67
2022/06/27 00:46:59;;;;;;;4.95;4.43;;;;;;;19.53;83.43;95277.69;4993792;28;20612;-68
2022/06/27 00:49:26;;;;;;;6.03;4.03;;;;;;;19.64;83.80;95279.56;4995948;28;20445;-67
2022/06/27 00:51:53;;;;;;;4.25;3.75;;;;;;;19.77;83.29;95274.44;4994644;28;20756;-68
2022/06/27 00:54:21;;;;;;;5.97;4.13;;;;;;;19.95;82.52;95275.78;4995880;28;20218;-68
2022/06/27 00:56:48;;;;;;;6.72;4.45;;;;;;;20.19;81.09;95276.72;4997076;28;20215;-67
2022/06/27 00:59:15;;;;;;;4.78;4.35;;;;;;;20.40;79.92;95271.03;4995334;28;20216;-66
2022/06/27 01:01:42;;;;;;;4.05;3.72;;;;;;;20.52;79.27;95273.63;4995075;28;20265;-66
2022/06/27 01:04:10;;;;;;;6.60;4.03;;;;;;;20.52;79.40;95260.69;4994046;28;20595;-66
2022/06/27 01:06:37;;;;;;;7.05;4.50;;;;;;;20.40;79.31;95260.72;5000781;28;20212;-68
2022/06/27 01:09:05;;;;;;;4.82;4.53;;;;;;;20.38;79.78;95261.63;5001020;28;20199;-66
2022/06/27 01:11:32;;;;;;;5.18;4.72;;;;;;;19.62;82.14;95256.44;4998150;28;20230;-66
2022/06/27 01:13:59;;;;;;;5.05;4.68;;;;;;;19.01;85.45;95255.25;4997799;28;20285;-67
2022/06/27 01:16:26;;;;;;;5.28;4.78;;;;;;;18.77;86.84;95256.81;5000893;28;20237;-66
2022/06/27 01:18:53;;;;;;;4.68;4.20;;;;;;;18.84;87.11;95258.03;4999277;28;20223;-68
2022/06/27 01:21:24;;;;;;;5.47;4.97;;;;;;;19.32;85.50;95259.25;4997911;28;20743;-66
2022/06/27 01:23:53;;;;;;;5.38;4.95;;;;;;;19.49;84.00;95255.59;4999405;28;20214;-66
2022/06/27 01:26:23;;;;;;;4.60;4.30;;;;;;;19.72;83.31;95261.00;4998820;28;20239;-66
2022/06/27 01:28:50;;;;;;;4.70;4.18;;;;;;;19.97;81.87;95266.19;4998185;28;20199;-67
2022/06/27 01:31:17;;;;;;;5.03;4.47;;;;;;;20.16;81.16;95261.44;5000084;28;20215;-68
2022/06/27 01:33:44;;;;;;;6.20;4.28;;;;;;;20.36;79.94;95260.88;4997726;28;20265;-69
2022/06/27 01:38:57;;;;;;;4.32;4.03;;;;;;;19.87;81.49;95272.88;5000605;28;20304;-67
2022/06/27 01:41:24;;;;;;;4.53;4.13;;;;;;;19.95;82.03;95275.78;5000720;28;20209;-69
2022/06/27 01:43:51;;;;;;;7.18;4.93;;;;;;;20.02;81.48;95274.44;4999507;28;20211;-66
2022/06/27 01:46:18;;;;;;;5.00;4.60;;;;;;;19.88;81.44;95275.34;4999035;28;22107;-67
2022/06/27 01:48:45;;;;;;;5.50;4.93;;;;;;;19.66;82.13;95277.72;4999171;28;20203;-66
2022/06/27 01:51:12;;;;;;;5.68;5.22;;;;;;;19.57;82.47;95279.13;4997423;28;20207;-67
2022/06/27 01:53:39;;;;;;;5.90;5.28;;;;;;;19.63;82.12;95280.47;5000643;28;20656;-67
2022/06/27 01:56:08;;;;;;;6.63;4.90;;;;;;;19.63;82.54;95275.31;4999376;28;20264;-67
2022/06/27 01:58:35;;;;;;;6.65;5.40;;;;;;;19.65;82.20;95282.03;4997495;28;22369;-66
2022/06/27 02:01:03;;;;;;;11.95;5.25;;;;;;;19.65;82.56;95282.03;5000494;28;20226;-68
2022/06/27 02:03:30;;;;;;;5.95;5.45;;;;;;;19.49;82.54;95289.09;4999385;28;20669;-67
2022/06/27 02:05:57;;;;;;;7.68;6.50;;;;;;;19.13;84.01;95284.53;4999884;28;20246;-66
2022/06/27 02:08:26;;;;;;;6.38;5.60;;;;;;;19.24;84.69;95287.28;4998524;28;20764;-66
2022/06/27 02:10:53;;;;;;;5.90;5.38;;;;;;;19.50;83.76;95290.78;4999319;28;20264;-67
2022/06/27 02:13:21;;;;;;;6.45;5.60;;;;;;;19.90;81.69;95295.88;4997572;28;20247;-67
2022/06/27 02:16:07;;;;;;;5.60;5.07;;;;;;;20.12;80.83;95300.44;4998959;28;20833;-66
2022/06/27 02:18:35;;;;;;;8.48;5.95;;;;;;;20.17;80.23;95304.38;4998188;28;20236;-69
2022/06/27 02:21:03;;;;;;;5.85;5.28;;;;;;;20.13;80.11;95304.66;4997067;28;20304;-67
2022/06/27 02:23:30;;;;;;;5.70;5.40;;;;;;;19.33;82.82;95293.56;4998202;28;20215;-71
2022/06/27 02:25:58;;;;;;;8.02;5.63;;;;;;;18.71;85.83;95300.94;4996925;28;20664;-66
2022/06/27 02:28:28;;;;;;;6.57;5.30;;;;;;;18.46;87.27;95305.91;4998321;28;20204;-68
2022/06/27 02:30:55;;;;;;;6.32;5.72;;;;;;;18.25;88.77;95306.28;4998298;28;20658;-66
2022/06/27 02:33:22;;;;;;;6.93;5.80;;;;;;;18.63;87.66;95305.72;4997962;28;20870;-66
2022/06/27 02:35:51;;;;;;;7.93;5.63;;;;;;;18.93;86.03;95314.13;4999584;28;20212;-67
2022/06/27 02:38:19;;;;;;;6.25;5.65;;;;;;;19.33;84.57;95319.34;4999572;28;20207;-67
2022/06/27 02:40:47;;;;;;;12.38;5.65;;;;;;;19.56;83.23;95315.31;4997621;28;20270;-67
2022/06/27 02:43:17;;;;;;;12.00;5.75;;;;;;;19.67;82.21;95316.28;4997076;28;20215;-69
2022/06/27 02:45:47;;;;;;;8.35;5.93;;;;;;;19.77;81.97;95307.97;4996628;28;20218;-68
2022/06/27 02:48:15;;;;;;;8.10;4.82;;;;;;;19.90;81.10;95316.53;4997312;28;20769;-68
2022/06/27 02:50:45;;;;;;;6.90;6.15;;;;;;;19.76;81.21;95314.88;4996383;28;20823;-67
2022/06/27 02:53:16;;;;;;;7.07;5.68;;;;;;;19.62;81.88;95318.34;4998756;28;20566;-67
2022/06/27 02:55:46;;;;;;;6.72;5.05;;;;;;;19.59;82.32;95328.00;4998076;28;20211;-68
2022/06/27 02:58:19;;;;;;;10.88;5.28;;;;;;;19.70;81.88;95323.81;4996814;28;20215;-67
2022/06/27 03:00:49;;;;;;;5.10;4.78;;;;;;;19.85;81.21;95324.56;4995201;28;20675;-67
2022/06/27 03:03:17;;;;;;;5.00;4.50;;;;;;;19.84;80.90;95332.41;4997067;28;20303;-68
2022/06/27 03:05:57;;;;;;;6.20;4.70;;;;;;;19.85;80.84;95339.22;4998317;28;20288;-67
2022/06/27 03:08:24;;;;;;;5.40;4.75;;;;;;;19.95;80.36;95319.63;4998043;28;21591;-66
2022/06/27 03:10:51;;;;;;;4.75;4.35;;;;;;;19.93;80.42;95324.06;4998218;28;20211;-70
2022/06/27 03:13:18;;;;;;;5.25;4.43;;;;;;;20.09;79.74;95332.44;4998674;28;20281;-69
2022/06/27 03:15:46;;;;;;;5.28;3.97;;;;;;;20.06;79.75;95327.47;4999450;28;20192;-68
2022/06/27 03:18:15;;;;;;;6.55;5.07;;;;;;;19.97;79.55;95317.78;4998498;28;20252;-67
2022/06/27 03:20:42;;;;;;;5.07;3.72;;;;;;;19.74;80.39;95327.03;4996510;28;20613;-69
2022/06/27 03:23:09;;;;;;;5.28;4.10;;;;;;;19.33;81.70;95321.91;4996371;28;21171;-67
2022/06/27 03:25:36;;;;;;;6.90;4.20;;;;;;;18.89;84.31;95327.28;4996621;28;20289;-70
2022/06/27 03:28:03;;;;;;;6.13;3.70;;;;;;;19.08;82.82;95326.97;4996585;28;20207;-68
2022/06/27 03:30:30;;;;;;;4.78;4.13;;;;;;;19.09;83.35;95326.03;4998210;28;20191;-68
2022/06/27 03:32:58;;;;;;;6.47;4.15;;;;;;;18.85;83.78;95324.06;4995904;28;20215;-69
2022/06/27 03:35:25;;;;;;;4.43;3.83;;;;;;;19.26;82.45;95330.97;4995700;28;20196;-69
2022/06/27 03:37:52;;;;;;;3.67;3.35;;;;;;;20.99;76.80;95334.88;4996343;28;20277;-68
2022/06/27 03:40:19;;;;;;;13.82;12.40;;;;;;;22.37;71.01;95334.25;4996092;28;20219;-66
2022/06/27 03:42:46;;;;;;;11.68;9.70;;;;;;;23.83;64.93;95334.88;4996914;28;20200;-68
2022/06/27 03:45:13;;;;;;;8.70;6.50;;;;;;;25.02;61.43;95336.13;4996746;28;21277;-68
2022/06/27 03:47:51;;;;;;;9.57;4.72;;;;;;;25.91;58.42;95333.53;4997866;28;20199;-67
2022/06/27 03:50:18;;;;;;;11.85;9.43;;;;;;;26.70;55.64;95328.88;4997755;28;20567;-68
2022/06/27 03:52:45;;;;;;;6.22;5.72;;;;;;;27.29;53.15;95338.06;4996104;28;20770;-68
2022/06/27 03:55:13;;;;;;;6.10;4.07;;;;;;;27.75;52.17;95335.31;4997869;28;20639;-67
2022/06/27 03:57:48;;;;;;;3.97;3.33;;;;;;;28.48;50.40;95326.41;4996370;28;20208;-66
2022/06/27 04:00:15;;;;;;;7.53;3.17;;;;;;;29.28;48.43;95330.41;4996810;28;20284;-67
2022/06/27 04:02:42;;;;;;;4.18;2.85;;;;;;;29.82;47.41;95328.25;4995844;28;20209;-68
2022/06/27 04:05:09;;;;;;;3.90;3.60;;;;;;;29.96;46.54;95324.97;4995041;28;20285;-67
2022/06/27 04:07:38;;;;;;;9.35;8.50;;;;;;;30.21;45.59;95331.88;4997365;28;20684;-68
2022/06/27 04:10:06;;;;;;;13.52;8.07;;;;;;;30.28;45.18;95325.00;4994848;28;20259;-68
2022/06/27 04:12:33;;;;;;;8.85;7.97;;;;;;;30.00;45.80;95324.50;4996243;28;20250;-68
2022/06/27 04:15:00;;;;;;;8.65;6.03;;;;;;;29.51;47.40;95325.41;4996712;28;20677;-67
2022/06/27 04:17:27;;;;;;;4.95;3.45;;;;;;;27.73;50.30;95323.34;4996233;28;20220;-69
2022/06/27 04:19:54;;;;;;;5.47;3.65;;;;;;;27.28;52.89;95318.97;4999669;28;20657;-68
2022/06/27 04:22:20;;;;;;;4.97;3.22;;;;;;;26.75;54.45;95314.41;4994291;28;20699;-67
2022/06/27 04:24:49;;;;;;;17.63;14.52;;;;;;;26.01;56.54;95318.69;4996771;28;20988;-68
2022/06/27 04:27:19;;;;;;;12.00;8.40;;;;;;;25.42;58.43;95330.06;4996095;28;20658;-68
2022/06/27 04:29:48;;;;;;;8.25;6.78;;;;;;;25.23;59.42;95332.63;4996841;28;21595;-69
2022/06/27 04:32:14;;;;;;;7.15;4.38;;;;;;;25.35;59.45;95337.56;4996397;28;20711;-68
2022/06/27 04:34:43;;;;;;;4.65;4.15;;;;;;;25.51;58.68;95331.84;4996016;28;20200;-67
2022/06/27 04:37:10;;;;;;;4.20;3.90;;;;;;;26.10;56.69;95328.28;4995853;28;20195;-68
2022/06/27 04:39:37;;;;;;;6.35;4.70;;;;;;;26.72;55.01;95324.34;4995704;28;20223;-67
2022/06/27 04:42:07;;;;;;;7.20;3.85;;;;;;;27.44;53.04;95323.56;4994979;28;20239;-67
2022/06/27 04:44:34;;;;;;;11.38;4.90;;;;;;;28.13;51.10;95330.72;4995415;28;20552;-67
2022/06/27 04:47:02;;;;;;;4.80;3.75;;;;;;;28.77;50.18;95326.91;4997500;28;20209;-68
2022/06/27 04:49:30;;;;;;;8.60;3.85;;;;;;;29.81;46.89;95331.84;4995209;28;20217;-68
2022/06/27 04:51:58;;;;;;;12.23;6.88;;;;;;;30.54;45.07;95323.97;4994276;28;20215;-68
2022/06/27 04:54:26;;;;;;;4.20;3.90;;;;;;;30.62;44.44;95331.84;4994533;28;20302;-67
2022/06/27 04:56:54;;;;;;;4.65;4.35;;;;;;;30.76;44.22;95321.47;4994518;28;20298;-67
2022/06/27 04:59:23;;;;;;;4.65;4.25;;;;;;;31.83;42.11;95322.63;4994665;28;20210;-66
2022/06/27 05:01:50;;;;;;;6.30;4.10;;;;;;;32.10;41.14;95319.47;4994979;28;20207;-67
2022/06/27 05:04:18;;;;;;;5.68;4.03;;;;;;;29.71;45.82;95322.31;4993470;28;20234;-68
2022/06/27 05:06:44;;;;;;;4.07;3.58;;;;;;;30.30;45.07;95328.25;4994656;28;20685;-69
2022/06/27 05:09:11;;;;;;;4.10;3.72;;;;;;;30.21;45.14;95333.66;4996934;28;20215;-69
2022/06/27 05:11:38;;;;;;;5.00;4.55;;;;;;;29.59;46.78;95338.53;4994855;28;20200;-68
2022/06/27 05:14:05;;;;;;;9.30;4.00;;;;;;;29.07;47.73;95331.66;4994882;28;20277;-67
2022/06/27 05:16:33;;;;;;;4.38;4.07;;;;;;;28.69;48.68;95339.94;4995417;28;20603;-69
2022/06/27 05:19:00;;;;;;;5.10;3.50;;;;;;;28.52;49.02;95339.03;4997459;28;20211;-68
2022/06/27 05:21:27;;;;;;;4.68;3.58;;;;;;;28.91;48.07;95334.19;4994650;28;20220;-68
2022/06/27 05:23:54;;;;;;;4.00;3.70;;;;;;;30.06;45.67;95336.97;4995022;28;20634;-68
2022/06/27 05:26:21;;;;;;;6.60;4.18;;;;;;;32.10;41.84;95334.41;4995557;28;20251;-68
2022/06/27 05:28:48;;;;;;;8.35;4.10;;;;;;;34.04;37.99;95331.34;4995786;28;20712;-67
2022/06/27 05:31:15;;;;;;;4.15;3.60;;;;;;;35.24;35.80;95333.81;4995736;28;20305;-69
2022/06/27 05:33:43;;;;;;;3.97;3.67;;;;;;;36.54;33.17;95338.00;4994684;28;20203;-69
2022/06/27 05:36:10;;;;;;;4.78;4.47;;;;;;;37.20;32.03;95348.50;4996399;28;20211;-68
2022/06/27 05:38:38;;;;;;;6.80;3.80;;;;;;;37.77;31.14;95342.34;4994648;28;20210;-68
2022/06/27 05:41:05;;;;;;;5.47;5.00;;;;;;;37.84;30.89;95342.31;4995905;28;20223;-68
2022/06/27 05:43:31;;;;;;;4.20;3.80;;;;;;;37.78;30.84;95349.28;4993990;28;20207;-68
2022/06/27 05:45:58;;;;;;;8.00;3.90;;;;;;;37.93;30.64;95341.03;4997137;28;20822;-67
2022/06/27 05:48:25;;;;;;;6.90;4.53;;;;;;;37.72;30.91;95350.13;4994940;28;20208;-68
2022/06/27 05:50:53;;;;;;;6.80;5.20;;;;;;;37.48;31.56;95349.00;4998004;28;20203;-68
2022/06/27 05:53:20;;;;;;;5.70;5.30;;;;;;;37.46;31.64;95341.25;4997517;28;21206;-68
2022/06/27 05:55:47;;;;;;;6.95;4.88;;;;;;;37.44;31.59;95347.78;4997864;28;20722;-69
2022/06/27 05:58:14;;;;;;;6.82;6.13;;;;;;;37.30;31.68;95348.88;4999017;28;20693;-68
2022/06/27 06:00:41;;;;;;;7.55;5.70;;;;;;;37.13;32.06;95346.66;4998641;28;20231;-72
2022/06/27 06:03:08;;;;;;;152.05;114.50;;;;;;;36.60;33.33;95350.41;4998753;28;20680;-68
2022/06/27 06:05:35;;;;;;;39.60;31.40;;;;;;;36.77;32.94;95346.34;4997706;28;20223;-69
2022/06/27 06:08:06;;;;;;;7.50;6.85;;;;;;;36.33;33.60;95345.13;4998390;28;20542;-71
2022/06/27 06:10:33;;;;;;;7.68;7.05;;;;;;;36.20;33.83;95350.38;4998835;28;20204;-65
2022/06/27 06:13:01;;;;;;;7.10;5.95;;;;;;;36.17;33.93;95350.78;4996828;28;20202;-65
2022/06/27 06:15:28;;;;;;;6.90;6.28;;;;;;;35.79;34.99;95346.06;4996998;28;20225;-65
2022/06/27 06:17:56;;;;;;;134.20;88.15;;;;;;;35.52;34.99;95344.31;4998962;28;20217;-65
2022/06/27 06:20:23;;;;;;;22.20;17.17;;;;;;;35.20;36.10;95343.16;4996862;28;20229;-66
2022/06/27 06:22:50;;;;;;;7.70;7.10;;;;;;;34.61;37.15;95348.88;4998425;28;20249;-66
2022/06/27 06:25:18;;;;;;;14.00;12.63;;;;;;;33.96;38.46;95351.75;4997288;28;20213;-67
2022/06/27 06:27:45;;;;;;;8.00;7.30;;;;;;;33.70;39.58;95358.34;4998856;28;20219;-68
2022/06/27 06:30:13;;;;;;;12.57;11.35;;;;;;;33.72;38.94;95356.34;4998141;28;20204;-66
2022/06/27 06:32:40;;;;;;;8.27;7.43;;;;;;;33.35;39.58;95351.28;4999020;28;20297;-66
2022/06/27 06:35:08;;;;;;;8.95;7.40;;;;;;;33.14;40.52;95359.91;4998005;28;20705;-66
2022/06/27 06:37:38;;;;;;;7.88;7.22;;;;;;;32.96;40.68;95360.25;4999742;28;20316;-67
2022/06/27 06:40:06;;;;;;;16.38;10.25;;;;;;;32.49;41.46;95357.94;4996801;28;20362;-67
2022/06/27 06:42:34;;;;;;;9.15;8.27;;;;;;;31.57;43.77;95353.66;4996965;28;20215;-66
2022/06/27 06:45:01;;;;;;;8.70;6.95;;;;;;;31.24;44.62;95359.06;4997892;28;20241;-66
2022/06/27 06:47:29;;;;;;;7.72;6.93;;;;;;;30.76;46.16;95365.25;4998360;28;20218;-68
2022/06/27 06:49:56;;;;;;;7.60;6.65;;;;;;;30.50;47.01;95364.63;4997528;28;20291;-66
2022/06/27 06:52:22;;;;;;;7.38;6.68;;;;;;;30.28;47.19;95361.69;4998231;28;20210;-67
2022/06/27 06:54:50;;;;;;;9.40;7.13;;;;;;;30.18;47.63;95366.31;4996346;28;21964;-67
2022/06/27 06:57:17;;;;;;;10.32;6.95;;;;;;;30.14;47.46;95364.97;4997692;28;20233;-67
2022/06/27 06:59:45;;;;;;;8.52;6.80;;;;;;;29.61;48.65;95373.25;4998609;28;20292;-67
2022/06/27 07:02:13;;;;;;;7.15;6.47;;;;;;;29.25;49.48;95372.59;4994626;28;20211;-67
2022/06/27 07:04:39;;;;;;;7.80;6.40;;;;;;;28.65;51.19;95380.47;4995663;28;20227;-65
2022/06/27 07:07:07;;;;;;;24.27;12.85;;;;;;;28.91;50.48;95380.47;4998428;28;20706;-67
2022/06/27 07:09:33;;;;;;;20.50;12.45;;;;;;;29.23;49.52;95374.53;4998646;28;20206;-66
2022/06/27 07:12:02;;;;;;;23.15;12.38;;;;;;;29.36;49.32;95374.94;4997416;28;20213;-66
2022/06/27 07:14:29;;;;;;;12.35;8.90;;;;;;;29.31;48.97;95378.03;4995465;28;20212;-67
2022/06/27 07:16:58;;;;;;;7.40;6.20;;;;;;;29.22;48.84;95378.97;4999095;28;20216;-66
2022/06/27 07:19:24;;;;;;;6.70;6.20;;;;;;;29.22;48.74;95378.13;4996558;28;20256;-66
2022/06/27 07:21:51;;;;;;;7.43;5.78;;;;;;;28.81;49.58;95377.97;4998970;28;20223;-66
2022/06/27 07:24:18;;;;;;;7.70;5.63;;;;;;;28.85;49.48;95381.91;4995433;28;20230;-66
2022/06/27 07:26:45;;;;;;;7.47;6.32;;;;;;;29.13;50.14;95377.31;4996989;28;20739;-67
2022/06/27 07:29:12;;;;;;;8.38;6.55;;;;;;;29.18;49.05;95379.47;4997588;28;20748;-66
2022/06/27 07:31:38;;;;;;;14.80;12.05;;;;;;;29.23;48.54;95379.78;4995506;28;20214;-66
2022/06/27 07:34:08;;;;;;;11.52;8.60;;;;;;;29.29;49.45;95373.94;4994220;28;20216;-67
2022/06/27 07:36:35;;;;;;;19.35;12.48;;;;;;;29.33;49.47;95372.63;4995327;28;20213;-66
2022/06/27 07:39:03;;;;;;;25.05;17.60;;;;;;;29.46;48.98;95375.63;4993111;28;20795;-67
2022/06/27 07:41:32;;;;;;;8.95;6.35;;;;;;;29.42;49.13;95371.72;4996423;28;20323;-66
2022/06/27 07:44:00;;;;;;;9.77;8.90;;;;;;;29.42;49.37;95369.09;4998594;28;20203;-66
2022/06/27 07:46:27;;;;;;;12.45;7.45;;;;;;;29.48;48.95;95378.91;4996602;28;20303;-65
2022/06/27 07:48:54;;;;;;;8.38;6.35;;;;;;;29.35;47.99;95375.91;4997212;28;20207;-66
2022/06/27 07:51:22;;;;;;;6.85;4.72;;;;;;;28.88;49.61;95376.38;4996531;28;20278;-66
2022/06/27 07:53:51;;;;;;;5.38;4.97;;;;;;;28.39;50.03;95370.81;4994738;28;20673;-65
2022/06/27 07:56:20;;;;;;;7.45;6.72;;;;;;;28.29;48.55;95362.22;4995974;28;20208;-66
2022/06/27 07:58:48;;;;;;;5.88;5.47;;;;;;;28.10;47.90;95370.22;4994027;28;20297;-66
2022/06/27 08:01:16;;;;;;;8.23;7.43;;;;;;;28.33;49.18;95366.19;4995950;28;20235;-66
2022/06/27 08:03:44;;;;;;;5.05;4.60;;;;;;;28.01;48.98;95369.31;4997003;28;20219;-66
2022/06/27 08:06:15;;;;;;;8.05;7.30;;;;;;;28.42;48.76;95362.66;4997371;28;20227;-66
2022/06/27 08:08:45;;;;;;;10.40;7.65;;;;;;;28.64;47.86;95361.34;4994908;28;20214;-66
2022/06/27 08:11:15;;;;;;;11.60;10.43;;;;;;;28.64;48.79;95366.56;4995412;28;20281;-67
2022/06/27 08:13:43;;;;;;;4.97;4.57;;;;;;;28.57;47.84;95367.31;4995972;28;20207;-67
2022/06/27 08:16:12;;;;;;;5.13;4.18;;;;;;;28.49;47.86;95365.47;4995275;28;20692;-67
2022/06/27 08:18:40;;;;;;;23.70;19.88;;;;;;;28.67;48.30;95365.44;4994331;28;20199;-66
2022/06/27 08:21:08;;;;;;;9.23;6.88;;;;;;;28.70;47.36;95370.38;4997007;28;20222;-66
2022/06/27 08:23:37;;;;;;;12.98;11.00;;;;;;;28.93;47.43;95363.66;4995032;28;20312;-66
2022/06/27 08:26:07;;;;;;;15.50;13.60;;;;;;;29.18;47.38;95361.97;4995942;28;20232;-65
2022/06/27 08:28:35;;;;;;;18.88;12.63;;;;;;;29.23;47.52;95364.06;4994575;28;20298;-66
2022/06/27 08:31:02;;;;;;;7.93;7.22;;;;;;;29.21;46.27;95363.41;4995554;28;20200;-67
2022/06/27 08:33:30;;;;;;;6.82;5.63;;;;;;;29.22;46.18;95362.44;4994699;28;20216;-66
2022/06/27 08:35:58;;;;;;;6.28;4.75;;;;;;;28.84;47.19;95367.19;4994686;28;20807;-66
2022/06/27 08:38:25;;;;;;;6.30;4.82;;;;;;;28.95;48.03;95361.69;4998245;28;20212;-66
2022/06/27 08:40:54;;;;;;;5.18;4.70;;;;;;;28.89;47.64;95357.09;4996889;28;20315;-66
2022/06/27 08:43:23;;;;;;;4.75;4.10;;;;;;;29.03;46.17;95356.47;4996843;28;20813;-65
2022/06/27 08:45:51;;;;;;;7.90;5.03;;;;;;;29.13;48.35;95358.16;4995258;28;20208;-65
2022/06/27 08:48:19;;;;;;;5.28;4.88;;;;;;;28.84;48.54;95350.69;4995323;28;21770;-66
2022/06/27 08:50:48;;;;;;;5.50;4.53;;;;;;;28.82;48.13;95348.22;4994747;28;20228;-65
2022/06/27 08:53:16;;;;;;;12.73;5.55;;;;;;;28.88;46.99;95365.09;4995985;28;20203;-65
2022/06/27 08:55:47;;;;;;;5.10;4.75;;;;;;;29.07;45.09;95360.44;4994314;28;20224;-65
2022/06/27 08:58:15;;;;;;;5.53;5.00;;;;;;;29.14;45.40;95352.78;4993561;28;20735;-66
2022/06/27 09:00:46;;;;;;;4.63;4.07;;;;;;;29.24;44.75;95350.84;4994894;28;20228;-64
2022/06/27 09:03:13;;;;;;;5.88;4.55;;;;;;;29.19;44.89;95360.16;4993526;28;20215;-65
2022/06/27 09:05:40;;;;;;;3.95;3.65;;;;;;;28.60;46.08;95357.38;4993415;28;20912;-65
2022/06/27 09:08:09;;;;;;;6.53;3.60;;;;;;;28.37;46.56;95358.88;4995077;28;20211;-65
2022/06/27 09:10:37;;;;;;;4.07;3.58;;;;;;;28.20;47.03;95359.69;4994329;28;20215;-66
2022/06/27 09:13:09;;;;;;;5.50;4.07;;;;;;;27.78;48.23;95350.69;4995593;28;20199;-65
2022/06/27 09:15:53;;;;;;;3.25;2.95;;;;;;;27.74;45.75;95354.53;4994386;28;20218;-66
2022/06/27 09:18:22;;;;;;;4.35;3.08;;;;;;;27.71;46.69;95354.88;4993768;28;20207;-66
2022/06/27 09:20:52;;;;;;;7.45;3.20;;;;;;;27.77;47.24;95354.25;4992617;28;22205;-65
2022/06/27 09:23:32;;;;;;;5.90;3.90;;;;;;;28.24;46.10;95346.19;4993535;28;20290;-65
2022/06/27 09:26:03;;;;;;;4.90;3.10;;;;;;;28.41;44.61;95347.94;4996832;28;20264;-66
2022/06/27 09:28:42;;;;;;;3.17;2.88;;;;;;;28.40;46.45;95348.09;4999371;28;20207;-66
2022/06/27 09:31:12;;;;;;;6.72;4.03;;;;;;;28.71;45.59;95346.63;4999978;28;20206;-65
2022/06/27 09:33:40;;;;;;;3.50;3.05;;;;;;;28.76;46.27;95352.22;5000106;28;20261;-65
2022/06/27 09:36:13;;;;;;;5.18;4.05;;;;;;;28.62;46.72;95350.19;4997872;28;20214;-65
2022/06/27 09:38:44;;;;;;;6.53;4.15;;;;;;;28.63;47.03;95345.78;4997561;28;20235;-65
2022/06/27 09:41:13;;;;;;;3.88;3.67;;;;;;;28.58;47.00;95348.03;4998617;28;20280;-65
2022/06/27 09:43:46;;;;;;;4.10;3.80;;;;;;;28.66;46.73;95342.88;4998434;28;20213;-66
2022/06/27 09:46:17;;;;;;;3.75;3.55;;;;;;;29.10;46.03;95339.19;4999476;28;20207;-65
2022/06/27 09:48:46;;;;;;;8.13;4.80;;;;;;;29.03;46.61;95338.16;4999342;28;20211;-67
2022/06/27 09:51:17;;;;;;;6.97;6.47;;;;;;;28.79;47.69;95340.63;4998841;28;20211;-66
2022/06/27 09:53:49;;;;;;;5.38;4.88;;;;;;;28.55;47.45;95343.13;4998004;28;20212;-65
2022/06/27 09:56:19;;;;;;;7.53;3.47;;;;;;;27.84;47.20;95345.81;4997425;28;20210;-67
2022/06/27 09:58:46;;;;;;;4.45;3.88;;;;;;;27.86;46.64;95346.50;4997263;28;20207;-67
2022/06/27 10:01:16;;;;;;;4.32;3.92;;;;;;;28.26;46.93;95331.16;4998316;28;20720;-65
2022/06/27 10:03:43;;;;;;;5.22;4.82;;;;;;;28.70;47.46;95331.94;4998954;28;20211;-65
2022/06/27 10:06:10;;;;;;;4.20;3.90;;;;;;;29.04;46.16;95328.53;4999755;28;20297;-64
2022/06/27 10:08:40;;;;;;;9.38;4.18;;;;;;;29.35;45.91;95326.16;4999698;28;20259;-65
2022/06/27 10:11:09;;;;;;;4.93;4.60;;;;;;;29.21;46.06;95324.16;4997588;28;21001;-66
2022/06/27 10:13:38;;;;;;;4.05;3.50;;;;;;;28.88;45.58;95334.50;4998465;28;20211;-67
2022/06/27 10:16:09;;;;;;;6.70;4.10;;;;;;;29.10;45.91;95328.72;4998023;28;21093;-65
2022/06/27 10:19:03;;;;;;;4.10;3.80;;;;;;;29.53;44.14;95319.03;4998537;28;20293;-67
2022/06/27 10:21:31;;;;;;;6.47;3.60;;;;;;;29.50;44.62;95314.13;4999357;28;20227;-66
2022/06/27 10:24:32;;;;;;;4.45;4.05;;;;;;;29.11;46.39;95314.66;4999603;28;20637;-66
2022/06/27 10:27:04;;;;;;;3.45;3.20;;;;;;;28.77;47.95;95319.03;4998603;28;20240;-67
2022/06/27 10:29:33;;;;;;;4.80;4.20;;;;;;;28.92;46.89;95319.31;4998523;28;20215;-66
2022/06/27 10:32:00;;;;;;;4.68;4.20;;;;;;;28.94;47.48;95323.44;4998321;28;20204;-66
2022/06/27 10:35:00;;;;;;;10.30;3.80;;;;;;;29.28;46.49;95319.94;4997323;28;20226;-65
2022/06/27 10:37:40;;;;;;;3.78;3.47;;;;;;;28.83;46.32;95315.84;4995559;28;21610;-66
2022/06/27 10:40:54;;;;;;;4.72;4.35;;;;;;;28.03;48.38;95311.69;4997922;28;20202;-66
2022/06/27 10:43:40;;;;;;;3.92;3.65;;;;;;;27.84;49.96;95302.25;4961812;28;20704;-64
2022/06/27 10:46:41;;;;;;;6.80;4.47;;;;;;;28.40;48.80;95296.63;4996889;28;20653;-66
2022/06/27 10:49:19;;;;;;;3.78;3.47;;;;;;;28.92;48.24;95301.00;4997983;28;20749;-65
2022/06/27 10:51:46;;;;;;;4.72;4.32;;;;;;;28.76;47.62;95304.34;4996536;28;20211;-64
2022/06/27 10:54:16;;;;;;;4.43;4.13;;;;;;;28.05;47.33;95300.13;4998487;28;20209;-64
2022/06/27 10:56:45;;;;;;;62.38;41.75;;;;;;;28.20;49.49;95297.81;4997112;28;20332;-64
2022/06/27 10:59:59;;;;;;;11.20;9.77;;;;;;;28.63;49.32;95296.09;4995701;28;20214;-64
2022/06/27 11:02:33;;;;;;;10.45;9.32;;;;;;;28.44;46.59;95302.38;4996032;28;20349;-64
2022/06/27 11:05:00;;;;;;;6.47;5.88;;;;;;;28.04;48.00;95300.28;4995439;28;20639;-67
2022/06/27 11:07:28;;;;;;;10.70;9.75;;;;;;;27.91;47.33;95289.41;4994668;28;20203;-65
2022/06/27 11:09:56;;;;;;;9.80;6.57;;;;;;;27.78;47.00;95298.44;4995778;28;20196;-64
2022/06/27 11:12:30;;;;;;;6.57;5.97;;;;;;;27.84;46.07;95299.63;4996590;28;20606;-64
2022/06/27 11:14:58;;;;;;;31.48;25.45;;;;;;;28.02;48.54;95287.34;4998271;28;21648;-65
2022/06/27 11:17:38;;;;;;;19.02;14.70;;;;;;;28.62;46.09;95290.06;4996761;28;20206;-63
2022/06/27 11:20:17;;;;;;;5.68;5.18;;;;;;;28.54;43.88;95292.63;4994002;28;20659;-64
2022/06/27 11:22:45;;;;;;;3.65;3.45;;;;;;;28.48;44.26;95280.16;4995721;28;20277;-64
2022/06/27 11:25:15;;;;;;;12.00;6.95;;;;;;;28.64;45.45;95293.34;4993199;28;20716;-65
2022/06/27 11:27:46;;;;;;;5.07;4.63;;;;;;;28.86;44.46;95293.78;4996410;28;21304;-64
2022/06/27 11:33:11;;;;;;;4.60;4.15;;;;;;;28.58;42.96;95287.91;4994859;28;20288;-65
2022/06/27 11:35:39;;;;;;;4.45;4.10;;;;;;;28.42;44.29;95289.47;4995092;28;20803;-66
2022/06/27 11:38:06;;;;;;;3.85;3.53;;;;;;;28.66;44.82;95272.25;4995688;28;20195;-67
2022/06/27 11:40:34;;;;;;;6.93;6.35;;;;;;;29.18;44.91;95288.66;4996144;28;20739;-64
2022/06/27 11:43:02;;;;;;;4.78;4.28;;;;;;;29.32;44.36;95288.03;4996485;28;20226;-64
2022/06/27 11:45:40;;;;;;;4.82;4.43;;;;;;;29.19;44.14;95286.88;4996912;28;20298;-64